sensor_id;sensor_type;location;lat;lon;timestamp;P1;durP1;ratioP1;P2;durP2;ratioP2
2039;SDS011;1025;42.686;23.350;2023-05-15T00:00:44;7.93;;;7.13;;
2039;SDS011;1025;42.686;23.350;2023-05-15T00:03:11;6.63;;;6.10;;
2039;SDS011;1025;42.686;23.350;2023-05-15T00:05:38;6.47;;;5.97;;
2039;SDS011;1025;42.686;23.350;2023-05-15T00:08:04;6.30;;;5.90;;
2039;SDS011;1025;42.686;23.350;2023-05-15T00:10:31;6.67;;;6.17;;
2039;SDS011;1025;42.686;23.350;2023-05-15T00:12:58;6.63;;;6.13;;
2039;SDS011;1025;42.686;23.350;2023-05-15T00:15:26;5.93;;;5.53;;
2039;SDS011;1025;42.686;23.350;2023-05-15T00:17:52;6.17;;;5.67;;
2039;SDS011;1025;42.686;23.350;2023-05-15T00:20:19;6.10;;;5.60;;
2039;SDS011;1025;42.686;23.350;2023-05-15T00:22:46;9.67;;;5.60;;
2039;SDS011;1025;42.686;23.350;2023-05-15T00:25:12;7.10;;;6.43;;
2039;SDS011;1025;42.686;23.350;2023-05-15T00:27:39;7.77;;;6.50;;
2039;SDS011;1025;42.686;23.350;2023-05-15T00:30:06;7.07;;;6.57;;
2039;SDS011;1025;42.686;23.350;2023-05-15T00:32:34;7.00;;;6.30;;
2039;SDS011;1025;42.686;23.350;2023-05-15T00:35:00;7.90;;;6.50;;
2039;SDS011;1025;42.686;23.350;2023-05-15T00:37:27;5.50;;;5.10;;
2039;SDS011;1025;42.686;23.350;2023-05-15T00:39:53;6.50;;;5.87;;
2039;SDS011;1025;42.686;23.350;2023-05-15T00:42:20;6.27;;;5.77;;
2039;SDS011;1025;42.686;23.350;2023-05-15T00:44:47;6.33;;;5.83;;
2039;SDS011;1025;42.686;23.350;2023-05-15T00:47:14;6.60;;;6.10;;
2039;SDS011;1025;42.686;23.350;2023-05-15T00:49:42;8.33;;;7.00;;
2039;SDS011;1025;42.686;23.350;2023-05-15T00:52:09;6.23;;;5.73;;
2039;SDS011;1025;42.686;23.350;2023-05-15T00:54:37;6.43;;;5.93;;
2039;SDS011;1025;42.686;23.350;2023-05-15T00:57:04;8.00;;;6.73;;
2039;SDS011;1025;42.686;23.350;2023-05-15T00:59:31;6.57;;;5.97;;
2039;SDS011;1025;42.686;23.350;2023-05-15T01:01:57;7.17;;;6.57;;
2039;SDS011;1025;42.686;23.350;2023-05-15T01:04:24;8.07;;;7.37;;
2039;SDS011;1025;42.686;23.350;2023-05-15T01:06:52;7.97;;;6.80;;
2039;SDS011;1025;42.686;23.350;2023-05-15T01:09:19;8.57;;;7.87;;
2039;SDS011;1025;42.686;23.350;2023-05-15T01:11:46;8.73;;;7.83;;
2039;SDS011;1025;42.686;23.350;2023-05-15T01:14:14;8.13;;;7.33;;
2039;SDS011;1025;42.686;23.350;2023-05-15T01:16:40;8.93;;;7.40;;
2039;SDS011;1025;42.686;23.350;2023-05-15T01:19:07;10.53;;;7.60;;
2039;SDS011;1025;42.686;23.350;2023-05-15T01:24:23;9.30;;;7.23;;
2039;SDS011;1025;42.686;23.350;2023-05-15T01:29:46;11.50;;;8.20;;
2039;SDS011;1025;42.686;23.350;2023-05-15T01:32:17;7.87;;;7.17;;
2039;SDS011;1025;42.686;23.350;2023-05-15T01:34:47;10.20;;;8.33;;
2039;SDS011;1025;42.686;23.350;2023-05-15T01:37:17;8.53;;;7.80;;
2039;SDS011;1025;42.686;23.350;2023-05-15T01:39:44;10.73;;;9.20;;
2039;SDS011;1025;42.686;23.350;2023-05-15T01:42:14;12.10;;;9.20;;
2039;SDS011;1025;42.686;23.350;2023-05-15T01:44:43;9.87;;;8.80;;
2039;SDS011;1025;42.686;23.350;2023-05-15T01:47:12;12.50;;;8.70;;
2039;SDS011;1025;42.686;23.350;2023-05-15T01:49:39;9.60;;;8.70;;
2039;SDS011;1025;42.686;23.350;2023-05-15T01:52:09;9.73;;;8.83;;
2039;SDS011;1025;42.686;23.350;2023-05-15T01:54:37;9.50;;;8.50;;
2039;SDS011;1025;42.686;23.350;2023-05-15T01:57:04;12.50;;;9.70;;
2039;SDS011;1025;42.686;23.350;2023-05-15T01:59:32;10.03;;;9.13;;
2039;SDS011;1025;42.686;23.350;2023-05-15T02:01:59;11.57;;;10.40;;
2039;SDS011;1025;42.686;23.350;2023-05-15T02:04:28;11.33;;;10.33;;
2039;SDS011;1025;42.686;23.350;2023-05-15T02:06:55;13.17;;;9.77;;
2039;SDS011;1025;42.686;23.350;2023-05-15T02:09:22;9.77;;;8.87;;
2039;SDS011;1025;42.686;23.350;2023-05-15T02:11:49;12.30;;;9.47;;
2039;SDS011;1025;42.686;23.350;2023-05-15T02:14:16;10.13;;;8.33;;
2039;SDS011;1025;42.686;23.350;2023-05-15T02:16:42;10.80;;;9.97;;
2039;SDS011;1025;42.686;23.350;2023-05-15T02:19:09;10.00;;;9.17;;
2039;SDS011;1025;42.686;23.350;2023-05-15T02:21:37;14.80;;;9.97;;
2039;SDS011;1025;42.686;23.350;2023-05-15T02:24:04;11.17;;;9.50;;
2039;SDS011;1025;42.686;23.350;2023-05-15T02:26:34;11.20;;;9.00;;
2039;SDS011;1025;42.686;23.350;2023-05-15T02:29:05;10.00;;;9.20;;
2039;SDS011;1025;42.686;23.350;2023-05-15T02:31:34;16.30;;;9.83;;
2039;SDS011;1025;42.686;23.350;2023-05-15T02:34:05;15.37;;;10.00;;
2039;SDS011;1025;42.686;23.350;2023-05-15T02:36:32;16.13;;;11.07;;
2039;SDS011;1025;42.686;23.350;2023-05-15T02:39:03;12.10;;;10.90;;
2039;SDS011;1025;42.686;23.350;2023-05-15T02:41:30;16.87;;;10.27;;
2039;SDS011;1025;42.686;23.350;2023-05-15T02:43:58;11.57;;;9.70;;
2039;SDS011;1025;42.686;23.350;2023-05-15T02:46:25;18.67;;;12.97;;
2039;SDS011;1025;42.686;23.350;2023-05-15T02:48:52;12.40;;;9.23;;
2039;SDS011;1025;42.686;23.350;2023-05-15T02:51:19;9.50;;;8.53;;
2039;SDS011;1025;42.686;23.350;2023-05-15T02:53:46;16.53;;;10.97;;
2039;SDS011;1025;42.686;23.350;2023-05-15T02:56:14;12.47;;;11.23;;
2039;SDS011;1025;42.686;23.350;2023-05-15T02:58:41;16.30;;;10.90;;
2039;SDS011;1025;42.686;23.350;2023-05-15T03:01:07;10.77;;;9.70;;
2039;SDS011;1025;42.686;23.350;2023-05-15T03:03:34;17.50;;;12.70;;
2039;SDS011;1025;42.686;23.350;2023-05-15T03:06:00;14.40;;;11.60;;
2039;SDS011;1025;42.686;23.350;2023-05-15T03:08:28;13.40;;;11.73;;
2039;SDS011;1025;42.686;23.350;2023-05-15T03:10:54;19.30;;;12.53;;
2039;SDS011;1025;42.686;23.350;2023-05-15T03:13:22;14.70;;;11.10;;
2039;SDS011;1025;42.686;23.350;2023-05-15T03:15:49;13.37;;;11.97;;
2039;SDS011;1025;42.686;23.350;2023-05-15T03:18:15;11.87;;;10.77;;
2039;SDS011;1025;42.686;23.350;2023-05-15T03:20:43;14.90;;;12.57;;
2039;SDS011;1025;42.686;23.350;2023-05-15T03:23:10;16.10;;;11.27;;
2039;SDS011;1025;42.686;23.350;2023-05-15T03:25:36;16.17;;;12.70;;
2039;SDS011;1025;42.686;23.350;2023-05-15T03:28:03;13.37;;;12.00;;
2039;SDS011;1025;42.686;23.350;2023-05-15T03:30:31;12.43;;;11.13;;
2039;SDS011;1025;42.686;23.350;2023-05-15T03:32:57;13.03;;;11.00;;
2039;SDS011;1025;42.686;23.350;2023-05-15T03:35:24;15.43;;;13.13;;
2039;SDS011;1025;42.686;23.350;2023-05-15T03:37:51;12.67;;;11.47;;
2039;SDS011;1025;42.686;23.350;2023-05-15T03:40:17;12.23;;;11.13;;
2039;SDS011;1025;42.686;23.350;2023-05-15T03:42:44;13.57;;;12.33;;
2039;SDS011;1025;42.686;23.350;2023-05-15T03:45:11;15.03;;;13.73;;
2039;SDS011;1025;42.686;23.350;2023-05-15T03:47:38;14.37;;;12.97;;
2039;SDS011;1025;42.686;23.350;2023-05-15T03:50:07;15.23;;;13.80;;
2039;SDS011;1025;42.686;23.350;2023-05-15T03:52:33;20.87;;;14.33;;
2039;SDS011;1025;42.686;23.350;2023-05-15T03:55:00;17.87;;;14.13;;
2039;SDS011;1025;42.686;23.350;2023-05-15T03:57:26;13.70;;;12.50;;
2039;SDS011;1025;42.686;23.350;2023-05-15T03:59:53;16.30;;;14.70;;
2039;SDS011;1025;42.686;23.350;2023-05-15T04:02:19;17.50;;;15.97;;
2039;SDS011;1025;42.686;23.350;2023-05-15T04:04:47;17.77;;;16.17;;
2039;SDS011;1025;42.686;23.350;2023-05-15T04:07:15;16.90;;;15.10;;
2039;SDS011;1025;42.686;23.350;2023-05-15T04:09:42;17.47;;;15.67;;
2039;SDS011;1025;42.686;23.350;2023-05-15T04:12:08;15.40;;;13.80;;
2039;SDS011;1025;42.686;23.350;2023-05-15T04:14:35;16.50;;;14.47;;
2039;SDS011;1025;42.686;23.350;2023-05-15T04:17:01;16.20;;;14.50;;
2039;SDS011;1025;42.686;23.350;2023-05-15T04:19:28;19.00;;;16.60;;
2039;SDS011;1025;42.686;23.350;2023-05-15T04:21:56;18.00;;;15.80;;
2039;SDS011;1025;42.686;23.350;2023-05-15T04:24:22;22.70;;;17.63;;
2039;SDS011;1025;42.686;23.350;2023-05-15T04:26:49;17.50;;;15.90;;
2039;SDS011;1025;42.686;23.350;2023-05-15T04:29:16;16.53;;;14.83;;
2039;SDS011;1025;42.686;23.350;2023-05-15T04:31:42;15.27;;;13.97;;
2039;SDS011;1025;42.686;23.350;2023-05-15T04:34:09;14.13;;;12.73;;
2039;SDS011;1025;42.686;23.350;2023-05-15T04:36:35;15.20;;;14.00;;
2039;SDS011;1025;42.686;23.350;2023-05-15T04:39:03;16.63;;;15.03;;
2039;SDS011;1025;42.686;23.350;2023-05-15T04:41:31;14.77;;;13.37;;
2039;SDS011;1025;42.686;23.350;2023-05-15T04:43:57;16.00;;;14.60;;
2039;SDS011;1025;42.686;23.350;2023-05-15T04:46:24;22.87;;;20.67;;
2039;SDS011;1025;42.686;23.350;2023-05-15T04:48:50;16.53;;;14.83;;
2039;SDS011;1025;42.686;23.350;2023-05-15T04:51:17;14.87;;;13.37;;
2039;SDS011;1025;42.686;23.350;2023-05-15T04:53:44;16.83;;;15.43;;
2039;SDS011;1025;42.686;23.350;2023-05-15T04:56:11;16.77;;;15.13;;
2039;SDS011;1025;42.686;23.350;2023-05-15T04:58:38;17.13;;;15.43;;
2039;SDS011;1025;42.686;23.350;2023-05-15T05:01:05;16.07;;;14.47;;
2039;SDS011;1025;42.686;23.350;2023-05-15T05:03:31;16.13;;;14.73;;
2039;SDS011;1025;42.686;23.350;2023-05-15T05:05:58;14.27;;;12.87;;
2039;SDS011;1025;42.686;23.350;2023-05-15T05:08:25;12.10;;;10.90;;
2039;SDS011;1025;42.686;23.350;2023-05-15T05:10:54;12.70;;;11.60;;
2039;SDS011;1025;42.686;23.350;2023-05-15T05:13:22;12.50;;;11.33;;
2039;SDS011;1025;42.686;23.350;2023-05-15T05:15:48;14.57;;;13.07;;
2039;SDS011;1025;42.686;23.350;2023-05-15T05:18:15;14.43;;;13.03;;
2039;SDS011;1025;42.686;23.350;2023-05-15T05:20:41;13.40;;;12.13;;
2039;SDS011;1025;42.686;23.350;2023-05-15T05:23:08;13.37;;;12.07;;
2039;SDS011;1025;42.686;23.350;2023-05-15T05:25:34;14.57;;;13.20;;
2039;SDS011;1025;42.686;23.350;2023-05-15T05:28:01;16.43;;;14.47;;
2039;SDS011;1025;42.686;23.350;2023-05-15T05:30:29;14.80;;;13.30;;
2039;SDS011;1025;42.686;23.350;2023-05-15T05:32:55;15.80;;;13.27;;
2039;SDS011;1025;42.686;23.350;2023-05-15T05:35:22;17.87;;;12.47;;
2039;SDS011;1025;42.686;23.350;2023-05-15T05:37:48;16.70;;;14.93;;
2039;SDS011;1025;42.686;23.350;2023-05-15T05:40:15;16.33;;;14.73;;
2039;SDS011;1025;42.686;23.350;2023-05-15T05:42:42;17.17;;;15.07;;
2039;SDS011;1025;42.686;23.350;2023-05-15T05:45:09;17.70;;;14.53;;
2039;SDS011;1025;42.686;23.350;2023-05-15T05:47:37;14.90;;;13.50;;
2039;SDS011;1025;42.686;23.350;2023-05-15T05:50:05;15.53;;;13.30;;
2039;SDS011;1025;42.686;23.350;2023-05-15T05:52:31;14.73;;;12.47;;
2039;SDS011;1025;42.686;23.350;2023-05-15T05:54:58;16.70;;;13.60;;
2039;SDS011;1025;42.686;23.350;2023-05-15T05:57:24;14.97;;;11.43;;
2039;SDS011;1025;42.686;23.350;2023-05-15T05:59:51;16.30;;;12.93;;
2039;SDS011;1025;42.686;23.350;2023-05-15T06:02:18;14.30;;;13.00;;
2039;SDS011;1025;42.686;23.350;2023-05-15T06:04:46;14.37;;;12.97;;
2039;SDS011;1025;42.686;23.350;2023-05-15T06:07:12;19.93;;;14.00;;
2039;SDS011;1025;42.686;23.350;2023-05-15T06:09:39;14.00;;;12.50;;
2039;SDS011;1025;42.686;23.350;2023-05-15T06:12:06;19.03;;;13.27;;
2039;SDS011;1025;42.686;23.350;2023-05-15T06:14:33;15.50;;;14.00;;
2039;SDS011;1025;42.686;23.350;2023-05-15T06:17:00;15.93;;;14.13;;
2039;SDS011;1025;42.686;23.350;2023-05-15T06:19:26;19.50;;;15.20;;
2039;SDS011;1025;42.686;23.350;2023-05-15T06:21:54;19.33;;;16.73;;
2039;SDS011;1025;42.686;23.350;2023-05-15T06:24:21;18.43;;;14.23;;
2039;SDS011;1025;42.686;23.350;2023-05-15T06:26:47;15.07;;;11.90;;
2039;SDS011;1025;42.686;23.350;2023-05-15T06:29:14;14.47;;;12.50;;
2039;SDS011;1025;42.686;23.350;2023-05-15T06:31:40;16.90;;;14.73;;
2039;SDS011;1025;42.686;23.350;2023-05-15T06:34:07;15.33;;;13.67;;
2039;SDS011;1025;42.686;23.350;2023-05-15T06:36:33;14.33;;;12.90;;
2039;SDS011;1025;42.686;23.350;2023-05-15T06:39:01;15.43;;;13.83;;
2039;SDS011;1025;42.686;23.350;2023-05-15T06:41:28;14.87;;;13.37;;
2039;SDS011;1025;42.686;23.350;2023-05-15T06:43:55;31.77;;;18.33;;
2039;SDS011;1025;42.686;23.350;2023-05-15T06:46:21;14.50;;;13.00;;
2039;SDS011;1025;42.686;23.350;2023-05-15T06:48:48;20.60;;;14.10;;
2039;SDS011;1025;42.686;23.350;2023-05-15T06:51:14;16.00;;;12.60;;
2039;SDS011;1025;42.686;23.350;2023-05-15T06:53:41;18.63;;;13.30;;
2039;SDS011;1025;42.686;23.350;2023-05-15T06:56:09;11.40;;;10.37;;
2039;SDS011;1025;42.686;23.350;2023-05-15T06:58:35;11.20;;;10.07;;
2039;SDS011;1025;42.686;23.350;2023-05-15T07:01:02;16.87;;;11.83;;
2039;SDS011;1025;42.686;23.350;2023-05-15T07:03:30;13.60;;;10.33;;
2039;SDS011;1025;42.686;23.350;2023-05-15T07:05:57;11.77;;;10.53;;
2039;SDS011;1025;42.686;23.350;2023-05-15T07:08:23;13.70;;;12.30;;
2039;SDS011;1025;42.686;23.350;2023-05-15T07:10:51;12.17;;;10.83;;
2039;SDS011;1025;42.686;23.350;2023-05-15T07:13:18;12.57;;;11.27;;
2039;SDS011;1025;42.686;23.350;2023-05-15T07:15:45;11.70;;;10.67;;
2039;SDS011;1025;42.686;23.350;2023-05-15T07:18:12;12.50;;;11.17;;
2039;SDS011;1025;42.686;23.350;2023-05-15T07:20:38;15.10;;;12.27;;
2039;SDS011;1025;42.686;23.350;2023-05-15T07:23:05;9.90;;;8.90;;
2039;SDS011;1025;42.686;23.350;2023-05-15T07:25:31;10.97;;;9.97;;
2039;SDS011;1025;42.686;23.350;2023-05-15T07:27:58;11.17;;;10.10;;
2039;SDS011;1025;42.686;23.350;2023-05-15T07:30:26;13.37;;;10.40;;
2039;SDS011;1025;42.686;23.350;2023-05-15T07:32:52;12.57;;;10.80;;
2039;SDS011;1025;42.686;23.350;2023-05-15T07:35:19;14.90;;;9.93;;
2039;SDS011;1025;42.686;23.350;2023-05-15T07:37:45;22.33;;;14.03;;
2039;SDS011;1025;42.686;23.350;2023-05-15T07:40:12;20.30;;;12.90;;
2039;SDS011;1025;42.686;23.350;2023-05-15T07:42:39;11.83;;;10.83;;
2039;SDS011;1025;42.686;23.350;2023-05-15T07:45:06;13.70;;;11.33;;
2039;SDS011;1025;42.686;23.350;2023-05-15T07:47:34;14.57;;;13.17;;
2039;SDS011;1025;42.686;23.350;2023-05-15T07:50:01;14.63;;;13.13;;
2039;SDS011;1025;42.686;23.350;2023-05-15T07:52:28;14.13;;;12.50;;
2039;SDS011;1025;42.686;23.350;2023-05-15T07:54:54;12.90;;;11.57;;
2039;SDS011;1025;42.686;23.350;2023-05-15T07:57:21;12.53;;;11.33;;
2039;SDS011;1025;42.686;23.350;2023-05-15T07:59:48;13.37;;;12.00;;
2039;SDS011;1025;42.686;23.350;2023-05-15T08:02:14;14.70;;;13.10;;
2039;SDS011;1025;42.686;23.350;2023-05-15T08:04:43;14.10;;;12.73;;
2039;SDS011;1025;42.686;23.350;2023-05-15T08:07:09;14.63;;;12.97;;
2039;SDS011;1025;42.686;23.350;2023-05-15T08:09:36;15.20;;;12.90;;
2039;SDS011;1025;42.686;23.350;2023-05-15T08:12:14;14.67;;;12.93;;
2039;SDS011;1025;42.686;23.350;2023-05-15T08:14:45;20.13;;;13.50;;
2039;SDS011;1025;42.686;23.350;2023-05-15T08:17:11;14.60;;;13.10;;
2039;SDS011;1025;42.686;23.350;2023-05-15T08:19:38;14.20;;;12.90;;
2039;SDS011;1025;42.686;23.350;2023-05-15T08:22:05;18.07;;;15.77;;
2039;SDS011;1025;42.686;23.350;2023-05-15T08:24:32;15.53;;;14.07;;
2039;SDS011;1025;42.686;23.350;2023-05-15T08:26:59;18.37;;;16.57;;
2039;SDS011;1025;42.686;23.350;2023-05-15T08:29:25;15.87;;;14.17;;
2039;SDS011;1025;42.686;23.350;2023-05-15T08:31:52;13.20;;;11.60;;
2039;SDS011;1025;42.686;23.350;2023-05-15T08:34:19;18.50;;;14.37;;
2039;SDS011;1025;42.686;23.350;2023-05-15T08:36:45;18.10;;;15.20;;
2039;SDS011;1025;42.686;23.350;2023-05-15T08:39:13;16.57;;;14.83;;
2039;SDS011;1025;42.686;23.350;2023-05-15T08:41:41;18.10;;;15.50;;
2039;SDS011;1025;42.686;23.350;2023-05-15T08:44:10;16.77;;;14.50;;
2039;SDS011;1025;42.686;23.350;2023-05-15T08:46:38;17.40;;;15.60;;
2039;SDS011;1025;42.686;23.350;2023-05-15T08:49:06;15.70;;;14.10;;
2039;SDS011;1025;42.686;23.350;2023-05-15T08:51:35;14.53;;;13.20;;
2039;SDS011;1025;42.686;23.350;2023-05-15T08:54:02;12.23;;;10.93;;
2039;SDS011;1025;42.686;23.350;2023-05-15T08:56:30;15.50;;;13.93;;
2039;SDS011;1025;42.686;23.350;2023-05-15T08:58:57;13.77;;;11.80;;
2039;SDS011;1025;42.686;23.350;2023-05-15T09:01:24;10.50;;;9.40;;
2039;SDS011;1025;42.686;23.350;2023-05-15T09:03:50;13.03;;;11.77;;
2039;SDS011;1025;42.686;23.350;2023-05-15T09:06:17;14.30;;;12.40;;
2039;SDS011;1025;42.686;23.350;2023-05-15T09:08:43;13.60;;;12.20;;
2039;SDS011;1025;42.686;23.350;2023-05-15T09:11:11;11.67;;;10.57;;
2039;SDS011;1025;42.686;23.350;2023-05-15T09:13:39;16.30;;;13.90;;
2039;SDS011;1025;42.686;23.350;2023-05-15T09:16:06;14.37;;;13.07;;
2039;SDS011;1025;42.686;23.350;2023-05-15T09:18:33;14.90;;;13.27;;
2039;SDS011;1025;42.686;23.350;2023-05-15T09:23:40;13.20;;;10.83;;
2039;SDS011;1025;42.686;23.350;2023-05-15T09:26:09;15.27;;;13.70;;
2039;SDS011;1025;42.686;23.350;2023-05-15T09:28:37;16.53;;;14.93;;
2039;SDS011;1025;42.686;23.350;2023-05-15T09:31:05;18.63;;;14.13;;
2039;SDS011;1025;42.686;23.350;2023-05-15T09:33:33;14.07;;;12.97;;
2039;SDS011;1025;42.686;23.350;2023-05-15T09:36:00;13.93;;;12.50;;
2039;SDS011;1025;42.686;23.350;2023-05-15T09:38:27;17.17;;;14.90;;
2039;SDS011;1025;42.686;23.350;2023-05-15T09:41:01;13.07;;;11.60;;
2039;SDS011;1025;42.686;23.350;2023-05-15T09:43:28;11.00;;;9.90;;
2039;SDS011;1025;42.686;23.350;2023-05-15T09:45:55;12.47;;;11.37;;
2039;SDS011;1025;42.686;23.350;2023-05-15T09:48:23;15.33;;;12.10;;
2039;SDS011;1025;42.686;23.350;2023-05-15T09:50:49;10.90;;;9.90;;
2039;SDS011;1025;42.686;23.350;2023-05-15T09:53:16;12.37;;;11.17;;
2039;SDS011;1025;42.686;23.350;2023-05-15T09:55:43;9.47;;;8.67;;
2039;SDS011;1025;42.686;23.350;2023-05-15T09:58:09;11.97;;;8.97;;
2039;SDS011;1025;42.686;23.350;2023-05-15T10:00:36;9.80;;;9.00;;
2039;SDS011;1025;42.686;23.350;2023-05-15T10:03:03;12.27;;;11.07;;
2039;SDS011;1025;42.686;23.350;2023-05-15T10:05:32;11.23;;;10.13;;
2039;SDS011;1025;42.686;23.350;2023-05-15T10:07:58;12.80;;;11.60;;
2039;SDS011;1025;42.686;23.350;2023-05-15T10:10:26;9.10;;;8.37;;
2039;SDS011;1025;42.686;23.350;2023-05-15T10:12:53;11.33;;;10.20;;
2039;SDS011;1025;42.686;23.350;2023-05-15T10:15:20;11.87;;;10.33;;
2039;SDS011;1025;42.686;23.350;2023-05-15T10:17:47;10.97;;;9.87;;
2039;SDS011;1025;42.686;23.350;2023-05-15T10:20:14;11.07;;;10.03;;
2039;SDS011;1025;42.686;23.350;2023-05-15T10:22:44;11.43;;;10.30;;
2039;SDS011;1025;42.686;23.350;2023-05-15T10:25:12;10.53;;;9.43;;
2039;SDS011;1025;42.686;23.350;2023-05-15T10:27:41;10.83;;;9.73;;
2039;SDS011;1025;42.686;23.350;2023-05-15T10:30:08;10.50;;;9.50;;
2039;SDS011;1025;42.686;23.350;2023-05-15T10:32:35;11.00;;;9.90;;
2039;SDS011;1025;42.686;23.350;2023-05-15T10:35:01;14.23;;;11.77;;
2039;SDS011;1025;42.686;23.350;2023-05-15T10:37:28;12.47;;;11.00;;
2039;SDS011;1025;42.686;23.350;2023-05-15T10:39:57;13.57;;;11.20;;
2039;SDS011;1025;42.686;23.350;2023-05-15T10:42:24;18.30;;;13.07;;
2039;SDS011;1025;42.686;23.350;2023-05-15T10:44:51;12.93;;;10.97;;
2039;SDS011;1025;42.686;23.350;2023-05-15T10:47:20;18.70;;;11.93;;
2039;SDS011;1025;42.686;23.350;2023-05-15T10:49:46;21.33;;;11.90;;
2039;SDS011;1025;42.686;23.350;2023-05-15T10:52:13;13.30;;;11.97;;
2039;SDS011;1025;42.686;23.350;2023-05-15T10:54:41;13.23;;;11.93;;
2039;SDS011;1025;42.686;23.350;2023-05-15T10:57:08;10.77;;;9.83;;
2039;SDS011;1025;42.686;23.350;2023-05-15T10:59:35;14.00;;;12.03;;
2039;SDS011;1025;42.686;23.350;2023-05-15T11:04:47;19.33;;;12.77;;
2039;SDS011;1025;42.686;23.350;2023-05-15T11:07:14;26.90;;;18.87;;
2039;SDS011;1025;42.686;23.350;2023-05-15T11:09:42;23.37;;;16.10;;
2039;SDS011;1025;42.686;23.350;2023-05-15T11:12:10;27.10;;;17.40;;
2039;SDS011;1025;42.686;23.350;2023-05-15T11:14:38;19.67;;;17.57;;
2039;SDS011;1025;42.686;23.350;2023-05-15T11:17:06;18.90;;;16.90;;
2039;SDS011;1025;42.686;23.350;2023-05-15T11:19:33;16.60;;;14.80;;
2039;SDS011;1025;42.686;23.350;2023-05-15T11:22:01;14.57;;;13.17;;
2039;SDS011;1025;42.686;23.350;2023-05-15T11:24:28;14.93;;;13.40;;
2039;SDS011;1025;42.686;23.350;2023-05-15T11:26:58;15.13;;;13.57;;
2039;SDS011;1025;42.686;23.350;2023-05-15T11:29:26;14.67;;;13.10;;
2039;SDS011;1025;42.686;23.350;2023-05-15T11:31:53;12.70;;;11.40;;
2039;SDS011;1025;42.686;23.350;2023-05-15T11:34:27;13.17;;;11.97;;
2039;SDS011;1025;42.686;23.350;2023-05-15T11:36:54;13.17;;;11.87;;
2039;SDS011;1025;42.686;23.350;2023-05-15T11:39:22;12.33;;;11.30;;
2039;SDS011;1025;42.686;23.350;2023-05-15T11:41:50;13.23;;;11.97;;
2039;SDS011;1025;42.686;23.350;2023-05-15T11:44:18;14.40;;;12.93;;
2039;SDS011;1025;42.686;23.350;2023-05-15T11:46:46;14.73;;;13.33;;
2039;SDS011;1025;42.686;23.350;2023-05-15T11:49:13;14.50;;;13.20;;
2039;SDS011;1025;42.686;23.350;2023-05-15T11:51:40;13.40;;;12.17;;
2039;SDS011;1025;42.686;23.350;2023-05-15T11:54:07;12.63;;;11.53;;
2039;SDS011;1025;42.686;23.350;2023-05-15T11:56:35;13.70;;;12.40;;
2039;SDS011;1025;42.686;23.350;2023-05-15T11:59:06;17.10;;;14.13;;
2039;SDS011;1025;42.686;23.350;2023-05-15T12:01:38;20.03;;;16.83;;
2039;SDS011;1025;42.686;23.350;2023-05-15T12:04:11;13.77;;;12.37;;
2039;SDS011;1025;42.686;23.350;2023-05-15T12:06:41;15.33;;;12.13;;
2039;SDS011;1025;42.686;23.350;2023-05-15T12:09:11;14.20;;;12.90;;
2039;SDS011;1025;42.686;23.350;2023-05-15T12:11:38;18.00;;;11.50;;
2039;SDS011;1025;42.686;23.350;2023-05-15T12:14:05;24.23;;;12.63;;
2039;SDS011;1025;42.686;23.350;2023-05-15T12:16:35;21.97;;;14.27;;
2039;SDS011;1025;42.686;23.350;2023-05-15T12:19:02;12.47;;;11.10;;
2039;SDS011;1025;42.686;23.350;2023-05-15T12:21:30;14.23;;;10.97;;
2039;SDS011;1025;42.686;23.350;2023-05-15T12:23:57;24.90;;;12.53;;
2039;SDS011;1025;42.686;23.350;2023-05-15T12:26:23;17.47;;;14.40;;
2039;SDS011;1025;42.686;23.350;2023-05-15T12:28:51;14.80;;;11.97;;
2039;SDS011;1025;42.686;23.350;2023-05-15T12:31:18;10.90;;;10.00;;
2039;SDS011;1025;42.686;23.350;2023-05-15T12:33:45;13.40;;;11.80;;
2039;SDS011;1025;42.686;23.350;2023-05-15T12:36:11;13.93;;;10.70;;
2039;SDS011;1025;42.686;23.350;2023-05-15T12:38:39;10.53;;;9.53;;
2039;SDS011;1025;42.686;23.350;2023-05-15T12:41:09;12.37;;;11.03;;
2039;SDS011;1025;42.686;23.350;2023-05-15T12:43:35;12.83;;;10.03;;
2039;SDS011;1025;42.686;23.350;2023-05-15T12:46:02;12.70;;;11.27;;
2039;SDS011;1025;42.686;23.350;2023-05-15T12:48:29;9.90;;;9.10;;
2039;SDS011;1025;42.686;23.350;2023-05-15T12:50:56;13.80;;;10.77;;
2039;SDS011;1025;42.686;23.350;2023-05-15T12:53:30;11.53;;;10.33;;
2039;SDS011;1025;42.686;23.350;2023-05-15T12:55:59;9.60;;;7.70;;
2039;SDS011;1025;42.686;23.350;2023-05-15T12:58:26;9.63;;;8.83;;
2039;SDS011;1025;42.686;23.350;2023-05-15T13:00:53;8.77;;;7.90;;
2039;SDS011;1025;42.686;23.350;2023-05-15T13:03:20;9.90;;;9.00;;
2039;SDS011;1025;42.686;23.350;2023-05-15T13:05:47;9.83;;;8.83;;
2039;SDS011;1025;42.686;23.350;2023-05-15T13:08:14;12.03;;;10.50;;
2039;SDS011;1025;42.686;23.350;2023-05-15T13:10:40;11.50;;;10.43;;
2039;SDS011;1025;42.686;23.350;2023-05-15T13:13:08;9.30;;;8.33;;
2039;SDS011;1025;42.686;23.350;2023-05-15T13:15:35;8.70;;;7.93;;
2039;SDS011;1025;42.686;23.350;2023-05-15T13:18:03;10.83;;;9.87;;
2039;SDS011;1025;42.686;23.350;2023-05-15T13:20:31;12.13;;;9.77;;
2039;SDS011;1025;42.686;23.350;2023-05-15T13:22:59;10.80;;;9.80;;
2039;SDS011;1025;42.686;23.350;2023-05-15T13:25:26;9.90;;;9.20;;
2039;SDS011;1025;42.686;23.350;2023-05-15T13:27:54;14.10;;;11.43;;
2039;SDS011;1025;42.686;23.350;2023-05-15T13:30:22;11.13;;;9.40;;
2039;SDS011;1025;42.686;23.350;2023-05-15T13:32:48;12.70;;;10.60;;
2039;SDS011;1025;42.686;23.350;2023-05-15T13:35:15;12.20;;;11.03;;
2039;SDS011;1025;42.686;23.350;2023-05-15T13:37:42;10.43;;;9.40;;
2039;SDS011;1025;42.686;23.350;2023-05-15T13:40:08;22.03;;;10.30;;
2039;SDS011;1025;42.686;23.350;2023-05-15T13:42:36;11.00;;;9.90;;
2039;SDS011;1025;42.686;23.350;2023-05-15T13:45:03;9.83;;;8.97;;
2039;SDS011;1025;42.686;23.350;2023-05-15T13:47:31;14.73;;;9.63;;
2039;SDS011;1025;42.686;23.350;2023-05-15T13:49:57;11.30;;;10.30;;
2039;SDS011;1025;42.686;23.350;2023-05-15T13:52:24;10.40;;;9.40;;
2039;SDS011;1025;42.686;23.350;2023-05-15T13:54:51;9.37;;;8.47;;
2039;SDS011;1025;42.686;23.350;2023-05-15T13:57:17;9.53;;;8.53;;
2039;SDS011;1025;42.686;23.350;2023-05-15T13:59:44;11.60;;;10.50;;
2039;SDS011;1025;42.686;23.350;2023-05-15T14:02:11;10.07;;;9.20;;
2039;SDS011;1025;42.686;23.350;2023-05-15T14:04:39;11.97;;;10.47;;
2039;SDS011;1025;42.686;23.350;2023-05-15T14:07:05;11.37;;;10.27;;
2039;SDS011;1025;42.686;23.350;2023-05-15T14:09:32;10.73;;;9.90;;
2039;SDS011;1025;42.686;23.350;2023-05-15T14:11:58;9.90;;;9.00;;
2039;SDS011;1025;42.686;23.350;2023-05-15T14:14:24;9.93;;;9.07;;
2039;SDS011;1025;42.686;23.350;2023-05-15T14:16:51;9.80;;;8.90;;
2039;SDS011;1025;42.686;23.350;2023-05-15T14:19:18;9.63;;;8.73;;
2039;SDS011;1025;42.686;23.350;2023-05-15T14:21:45;9.80;;;9.00;;
2039;SDS011;1025;42.686;23.350;2023-05-15T14:24:12;10.60;;;9.53;;
2039;SDS011;1025;42.686;23.350;2023-05-15T14:26:39;9.67;;;8.87;;
2039;SDS011;1025;42.686;23.350;2023-05-15T14:29:07;11.40;;;8.30;;
2039;SDS011;1025;42.686;23.350;2023-05-15T14:31:34;8.33;;;7.63;;
2039;SDS011;1025;42.686;23.350;2023-05-15T14:34:00;9.50;;;8.57;;
2039;SDS011;1025;42.686;23.350;2023-05-15T14:36:27;8.57;;;7.70;;
2039;SDS011;1025;42.686;23.350;2023-05-15T14:38:57;8.67;;;7.87;;
2039;SDS011;1025;42.686;23.350;2023-05-15T14:41:23;9.40;;;8.00;;
2039;SDS011;1025;42.686;23.350;2023-05-15T14:43:50;13.57;;;6.63;;
2039;SDS011;1025;42.686;23.350;2023-05-15T14:46:17;8.90;;;5.73;;
2039;SDS011;1025;42.686;23.350;2023-05-15T14:48:43;7.53;;;6.27;;
2039;SDS011;1025;42.686;23.350;2023-05-15T14:51:10;6.33;;;4.50;;